Winslow, Arkansas
Current Conditions -  °F | °C
As of 4:53 AM on Monday 20 Oct 2014 (Local Time) from KFYV Reporting Station
Overcast Overcast  
Wind Chill: 52°   Ceiling: 4000
Heat Index: 52°   Visibility: 10mi
Dew Point: 51°   Wind: 0mph
Humidity: 97%   Direction: NA
Pressure: 30.07"   Gusts: NA
Location:  35.8°N, 94.13°W
Report Text: KFYV 200953Z 00000KT 10SM BKN040 BKN060 OVC090 11/11 A3007 RMK AO2 RAB03E42 SLP178 P0001 T01110106
Loading
Personal Weather Stations






























Interactive Weather Map
Tropical Storm Tracking
New forecast layout! Learn more

10-Day Weather Forecast

Advertisements
Track Severe Weather on mobile